Flight Track Log - Related Links

Times and Time Zones

All times are in EDT time to prevent confusion due to time zone crossing. See the JBU33 flight status page for this flight to view local times or setup timezone preferences in your user account.

Time Position Orientation Groundspeed Altitude Reporting Facility
EDT Latitude Longitude Course Direction KTS MPH feet Rate Location/Type
Sun 01:18:00 PM 43.6533 -73.4555 196° South  Level FlightAware Approximate
Sun 01:18:18 PM 44.3428 -73.0758 194° South 245 282 6,300  Level Boston Center
Sun 01:19:00 PM 43.5992 -73.4770 196° South  Level FlightAware Approximate
Sun 01:19:19 PM 44.2844 -73.1042 199° South 245 282 8,800  Level Boston Center
Sun 01:20:00 PM 43.5446 -73.4963 194° South  Level FlightAware Approximate
Sun 01:20:16 PM 44.2072 -73.1408 199° South 274 315 11,600  Level Boston Center
Sun 01:21:00 PM 43.4899 -73.5145 194° South  Level FlightAware Approximate
Sun 01:21:16 PM 44.1297 -73.1775 199° South 296 341 14,800  Level Boston Center
Sun 01:22:00 PM 43.4351 -73.5327 194° South  Level FlightAware Approximate
Sun 01:22:17 PM 44.0461 -73.2142 197° South 302 348 17,400  Level Boston Center
Sun 01:23:00 PM 43.3804 -73.5510 194° South  Level FlightAware Approximate
Sun 01:23:17 PM 43.9586 -73.2419 193° South 315 362 19,700  Level Boston Center
Sun 01:24:18 PM 43.8853 -73.2639 192° South 332 382 21,700 1,765 Climbing Boston Center
Sun 01:25:16 PM 43.7789 -73.2911 190° South 350 403 23,200 1,373 Climbing Boston Center
Sun 01:26:16 PM 43.6828 -73.3186 192° South 377 434 24,400 1,587 Climbing Boston Center
Sun 01:27:17 PM 43.5597 -73.3483 190° South 396 456 26,400 1,686 Climbing Boston Center
Sun 01:28:17 PM 43.4469 -73.3808 192° South 407 468 27,800 800 Climbing Boston Center
Sun 01:29:17 PM 43.3319 -73.4078 190° South 420 483 28,000 98 Climbing Boston Center
Sun 01:30:19 PM 43.2150 -73.4400 191° South 430 495 28,000  Level Boston Center
Sun 01:31:16 PM 43.0856 -73.4692 189° South 430 495 28,000  Level Boston Center
Sun 01:32:16 PM 42.9708 -73.4956 190° South 430 495 28,000  Level Boston Center
Sun 01:33:17 PM 42.8578 -73.5306 193° South 425 489 28,000  Level Boston Center
Sun 01:34:18 PM 42.7408 -73.5594 190° South 425 489 28,000  Level Boston Center
Sun 01:35:30 PM 42.6008 -73.5967 191° South 430 495 28,000  Level Boston Center
Sun 01:36:28 PM 42.4942 -73.6228 190° South 430 495 28,000  Level Boston Center
Sun 01:37:28 PM 42.3772 -73.6514 190° South 430 495 28,000  Level Boston Center
Sun 01:38:29 PM 42.2667 -73.6717 188° South 425 489 28,000  Level Boston Center
Sun 01:39:29 PM 42.1475 -73.7031 191° South 430 495 28,000  Level Boston Center
Sun 01:40:30 PM 42.0283 -73.7369 192° South 437 503 28,000 -32 Level Boston Center
Sun 01:42:39 PM 41.7878 -73.8536 200° South 418 481 27,900 -695 Descending New York Center
Sun 01:43:40 PM 41.6822 -73.9097 202° Southwest 418 481 25,800 -2,132 Descending New York Center
Sun 01:44:40 PM 41.5828 -73.9606 201° Southwest 411 473 23,600 -2,118 Descending New York Center
Sun 01:45:39 PM 41.4814 -74.0136 201° Southwest 396 456 21,600 -1,785 Descending New York Center
Sun 01:46:41 PM 41.3803 -74.0642 201° Southwest 391 450 20,000 -793 Descending New York Center
Sun 01:47:40 PM 41.2733 -74.0836 188° South 391 450 20,000  Level New York Center
Sun 01:48:40 PM 41.1647 -74.1006 187° South 397 457 20,000 -194 Level New York Center
Sun 01:49:13 PM 41.0833 -74.1167 188° South 390 449 19,700 -645 Descending New York TRACON
Sun 01:50:13 PM 40.9833 -74.1000 173° South 377 434 19,000 -1,100 Descending New York TRACON
Sun 01:52:13 PM 40.8667 -73.8833 125° Southeast 359 413 16,400 -1,167 Descending New York TRACON
Sun 01:53:13 PM 40.8167 -73.7833 123° Southeast 352 405 15,500 -1,200 Descending New York TRACON
Sun 01:54:13 PM 40.7667 -73.6833 123° Southeast 359 413 14,000 -1,200 Descending New York TRACON
Sun 01:55:13 PM 40.7167 -73.5833 123° Southeast 342 394 13,100 -500 Descending New York TRACON
Sun 01:56:13 PM 40.6333 -73.5333 156° South 330 380 13,000 -900 Descending New York TRACON
Sun 01:57:13 PM 40.5500 -73.5167 171° South 310 357 11,300 -1,900 Descending New York TRACON
Sun 01:58:13 PM 40.4667 -73.5500 197° South 285 328 9,200 -1,983 Descending New York TRACON
Sun 01:59:14 PM 40.4000 -73.5833 201° Southwest 284 327 7,300 -1,900 Descending New York TRACON
Sun 02:00:13 PM 40.3500 -73.6500 225° Southwest 262 302 5,400 -1,150 Descending New York TRACON
Sun 02:01:14 PM 40.2833 -73.7167 217° Southwest 258 297 5,000 -650 Descending New York TRACON
Sun 02:02:13 PM 40.2333 -73.7667 217° Southwest 253 291 4,100 -756 Descending New York TRACON
Sun 02:03:13 PM 40.2667 -73.8500 298° West 249 287 3,500 -550 Descending New York TRACON
Sun 02:04:13 PM 40.3167 -73.9000 323° Northwest 253 291 3,000 -250 Descending New York TRACON
Sun 02:05:13 PM 40.3833 -73.9500 330° Northwest 266 306 3,000  Level New York TRACON
Sun 02:06:14 PM 40.4500 -73.9500 360° North 233 268 3,000  Level New York TRACON
Sun 02:07:14 PM 40.5167 -73.9667 349° North 215 247 3,000 -600 Level New York TRACON
Sun 02:08:14 PM 40.5667 -73.9333 27° Northeast 205 236 1,800 -750 Descending New York TRACON
Sun 02:09:14 PM 40.6000 -73.9000 37° Northeast 179 206 1,500 -500 Descending New York TRACON
Sun 02:10:14 PM 40.6500 -73.8667 27° Northeast 146 168 800 -350 Descending New York TRACON
Sun 02:11:14 PM 40.6667 -73.8333 57° Northeast 143 165 800  Level New York TRACON

Login

Don't have an account? Register now (free) for customized features, flight alerts, and more!